San Carlos Centro, Argentina
Current Conditions -  °F | °C
As of 3:00 AM on Wednesday 26 Nov 2014 (Local Time) from SAAR Reporting Station
Clear Clear  
Wind Chill: 61°   Ceiling: Unl
Heat Index: 61°   Visibility: 6mi
Dew Point: 54°   Wind: 6mph
Humidity: 77%   Direction: 160°SSE
Pressure: 29.91"   Gusts: NA
Location:  31.74°S, 61.1°W
Report Text: SAAR 260600Z 16005KT CAVOK 16/12 Q1013
Loading
Personal Weather Stations






























Interactive Weather Map New forecast layout! Learn more

10-Day Weather Forecast

Advertisements
Track Severe Weather on mobile